Time;durP1;ratioP1;P1;durP2;ratioP2;P2;SDS_P1;SDS_P2;PMS_P1;PMS_P2;Temp;Humidity;BMP_temperature;BMP_pressure;BME280_temperature;BME280_humidity;BME280_pressure;Samples;Min_cycle;Max_cycle;Signal;HPM_P1;HPM_P2
2021/04/30 00:01:39;;;;;;;2.17;1.98;;;;;;;15.71;64.22;99902.00;5052101;28;20056;-74
2021/04/30 00:04:05;;;;;;;3.60;2.95;;;;;;;15.82;64.05;99910.38;5052530;28;20116;-74
2021/04/30 00:06:30;;;;;;;4.10;2.38;;;;;;;15.62;64.37;99881.94;5052081;28;20503;-74
2021/04/30 00:08:56;;;;;;;2.50;2.30;;;;;;;15.84;64.45;99904.34;5052268;28;20025;-74
2021/04/30 00:11:21;;;;;;;2.50;2.22;;;;;;;15.90;64.37;99902.72;5052056;28;20057;-74
2021/04/30 00:13:47;;;;;;;5.97;2.63;;;;;;;15.85;63.79;99878.69;5052599;28;20033;-74
2021/04/30 00:16:13;;;;;;;5.10;2.70;;;;;;;15.95;64.17;99902.31;5052004;28;20120;-74
2021/04/30 00:18:38;;;;;;;4.75;2.40;;;;;;;15.86;64.49;99908.34;5051890;28;20116;-74
2021/04/30 00:21:04;;;;;;;4.45;2.85;;;;;;;15.76;65.03;99902.75;5051960;28;20036;-74
2021/04/30 00:23:32;;;;;;;5.65;3.58;;;;;;;15.74;65.35;99889.16;5051617;28;20057;-74
2021/04/30 00:26:01;;;;;;;3.13;2.72;;;;;;;15.80;65.19;99898.75;5054184;28;20025;-74
2021/04/30 00:28:27;;;;;;;6.28;3.88;;;;;;;15.80;65.71;99904.34;5057384;28;20029;-74
2021/04/30 00:30:56;;;;;;;4.00;2.17;;;;;;;15.73;65.64;99898.78;5056094;28;20120;-74
2021/04/30 00:33:23;;;;;;;2.67;2.20;;;;;;;15.82;65.06;99901.13;5055789;28;20032;-74
2021/04/30 00:35:48;;;;;;;5.20;2.45;;;;;;;15.82;64.38;99899.16;5055331;28;20044;-74
2021/04/30 00:38:14;;;;;;;4.70;2.22;;;;;;;15.85;64.42;99905.94;5055554;28;20033;-74
2021/04/30 00:40:41;;;;;;;4.03;2.30;;;;;;;15.80;64.41;99895.94;5057089;28;20108;-74
2021/04/30 00:43:07;;;;;;;4.10;2.60;;;;;;;15.77;64.82;99907.19;5055426;28;20112;-74
2021/04/30 00:45:33;;;;;;;6.13;2.42;;;;;;;15.74;64.82;99913.59;5055431;28;20021;-74
2021/04/30 00:47:59;;;;;;;4.47;2.63;;;;;;;15.76;65.01;99908.38;5055249;28;20037;-74
2021/04/30 00:50:27;;;;;;;3.95;2.38;;;;;;;15.75;65.15;99906.78;5055294;28;20074;-74
2021/04/30 00:52:53;;;;;;;4.35;2.78;;;;;;;15.82;65.00;99910.38;5055299;28;20112;-74
2021/04/30 00:55:22;;;;;;;4.05;2.22;;;;;;;15.81;64.82;99913.56;5055280;28;20140;-74
2021/04/30 00:58:00;;;;;;;4.57;2.20;;;;;;;15.90;64.67;99911.16;5055398;28;20029;-74
2021/04/30 01:00:29;;;;;;;4.97;2.70;;;;;;;15.84;64.78;99904.34;5038817;28;20116;-74
2021/04/30 01:02:55;;;;;;;2.25;2.05;;;;;;;15.79;64.74;99901.97;5055717;28;20524;-74
2021/04/30 01:05:23;;;;;;;3.20;2.10;;;;;;;15.69;65.08;99897.97;5055141;28;20029;-74
2021/04/30 01:07:49;;;;;;;2.13;1.90;;;;;;;15.64;65.26;99904.78;5055340;28;20029;-74
2021/04/30 01:10:15;;;;;;;6.53;2.58;;;;;;;15.60;65.06;99895.56;5054996;28;20036;-74
2021/04/30 01:12:44;;;;;;;4.53;2.67;;;;;;;15.60;65.11;99886.34;5055481;28;20029;-74
2021/04/30 01:15:14;;;;;;;2.95;2.35;;;;;;;15.56;65.33;99886.38;5056487;28;20025;-74
2021/04/30 01:17:40;;;;;;;5.13;2.90;;;;;;;15.56;65.26;99886.38;5054854;28;20467;-74
2021/04/30 01:20:09;;;;;;;4.82;2.45;;;;;;;15.54;65.40;99885.16;5054911;28;20055;-74
2021/04/30 01:22:44;;;;;;;2.78;2.42;;;;;;;15.52;65.50;99879.97;5054712;28;20059;-74
2021/04/30 01:25:22;;;;;;;4.82;2.72;;;;;;;15.56;65.04;99875.16;5055028;28;20361;-74
2021/04/30 01:27:48;;;;;;;6.05;2.40;;;;;;;15.56;65.50;99866.75;5055501;28;20025;-74
2021/04/30 01:30:21;;;;;;;5.72;2.08;;;;;;;15.54;65.30;99869.13;5054907;28;20459;-74
2021/04/30 01:32:47;;;;;;;5.35;2.65;;;;;;;15.55;65.07;99867.13;5054541;28;20082;-74
2021/04/30 01:35:19;;;;;;;3.08;2.83;;;;;;;15.57;64.78;99862.72;5053930;28;20037;-74
2021/04/30 01:37:47;;;;;;;3.58;2.20;;;;;;;15.54;65.33;99862.72;5053565;28;20036;-73
2021/04/30 01:40:15;;;;;;;2.97;1.90;;;;;;;15.48;65.15;99858.75;5055516;28;20033;-73
2021/04/30 01:43:01;;;;;;;2.58;2.00;;;;;;;15.52;64.94;99860.34;5038816;28;20041;-74
2021/04/30 01:45:38;;;;;;;3.70;2.30;;;;;;;15.51;64.97;99861.53;5054413;28;20047;-73
2021/04/30 01:48:09;;;;;;;3.65;2.35;;;;;;;15.46;64.94;99842.34;5056123;28;20029;-73
2021/04/30 01:50:35;;;;;;;2.78;2.13;;;;;;;15.50;64.94;99845.94;5054086;28;20097;-73
2021/04/30 01:53:03;;;;;;;4.03;2.10;;;;;;;15.44;64.98;99839.13;5055486;28;20417;-74
2021/04/30 01:55:30;;;;;;;4.22;2.40;;;;;;;15.37;65.16;99839.94;5054161;28;20033;-73
2021/04/30 01:57:57;;;;;;;3.92;2.10;;;;;;;15.38;64.67;99838.72;5054064;28;20032;-74
2021/04/30 02:00:30;;;;;;;2.10;1.83;;;;;;;15.30;65.23;99830.75;5054062;28;20037;-73
2021/04/30 02:02:57;;;;;;;4.72;1.80;;;;;;;15.35;64.59;99839.56;5054851;28;20025;-73
2021/04/30 02:05:26;;;;;;;2.45;2.25;;;;;;;15.26;64.13;99813.13;5054272;28;20033;-73
2021/04/30 02:07:51;;;;;;;3.70;2.20;;;;;;;15.41;63.89;99845.53;5054272;28;20032;-73
2021/04/30 02:10:22;;;;;;;47.00;34.85;;;;;;;15.35;64.47;99827.53;5054184;28;20383;-73
2021/04/30 02:12:49;;;;;;;31.05;24.17;;;;;;;15.51;63.93;99819.50;5053880;28;20029;-73
2021/04/30 02:15:18;;;;;;;12.60;10.90;;;;;;;15.52;63.67;99828.69;5055423;28;20379;-73
2021/04/30 02:17:44;;;;;;;8.85;7.95;;;;;;;15.42;63.67;99825.50;5037313;28;20049;-73
2021/04/30 02:20:11;;;;;;;9.93;8.98;;;;;;;15.46;63.33;99823.50;5053711;28;20060;-74
2021/04/30 02:22:38;;;;;;;6.88;5.13;;;;;;;15.51;63.25;99813.88;5053691;28;20031;-74
2021/04/30 02:25:08;;;;;;;5.20;3.92;;;;;;;15.66;62.48;99815.47;5052661;28;20052;-74
2021/04/30 02:27:34;;;;;;;8.02;4.32;;;;;;;16.00;61.15;99817.72;5054798;28;20075;-74
2021/04/30 02:29:59;;;;;;;7.07;4.25;;;;;;;16.01;61.05;99819.31;5053529;28;20033;-74
2021/04/30 02:32:26;;;;;;;5.63;5.07;;;;;;;16.08;61.06;99813.66;5054291;28;20119;-74
2021/04/30 02:34:52;;;;;;;6.63;4.00;;;;;;;16.19;60.50;99825.66;5053402;28;20033;-74
2021/04/30 02:37:22;;;;;;;3.88;3.50;;;;;;;16.31;59.98;99815.16;5053308;28;20035;-74
2021/04/30 02:39:48;;;;;;;3.85;3.45;;;;;;;16.39;59.40;99825.09;5053347;28;20028;-74
2021/04/30 02:42:14;;;;;;;7.22;6.53;;;;;;;16.48;59.98;99825.47;5053591;28;20025;-74
2021/04/30 02:44:39;;;;;;;7.03;6.43;;;;;;;16.42;60.18;99822.28;5053224;28;20373;-74
2021/04/30 02:47:05;;;;;;;3.85;3.45;;;;;;;16.18;60.71;99790.34;5053696;28;20033;-74
2021/04/30 02:49:41;;;;;;;3.60;2.50;;;;;;;16.42;60.22;99819.47;5053018;28;20406;-74
2021/04/30 02:52:08;;;;;;;3.75;2.85;;;;;;;16.42;60.23;99821.50;5053690;28;20025;-74
2021/04/30 02:54:35;;;;;;;5.40;4.30;;;;;;;16.38;60.16;99815.88;5053342;28;20037;-74
2021/04/30 02:57:02;;;;;;;6.50;4.47;;;;;;;16.47;59.24;99807.00;5054485;28;20571;-74
2021/04/30 02:59:28;;;;;;;2.88;2.58;;;;;;;16.56;58.60;99810.13;5052949;28;20029;-74
2021/04/30 03:01:54;;;;;;;4.97;3.17;;;;;;;16.62;57.93;99808.50;5053460;28;20029;-74
2021/04/30 03:04:20;;;;;;;7.82;5.00;;;;;;;16.64;58.38;99805.28;5053143;28;20121;-74
2021/04/30 03:06:49;;;;;;;8.35;5.13;;;;;;;16.63;58.79;99798.06;5053348;28;20082;-74
2021/04/30 03:09:14;;;;;;;8.70;7.90;;;;;;;16.57;59.11;99808.94;5052759;28;20029;-74
2021/04/30 03:11:40;;;;;;;28.67;25.67;;;;;;;16.48;59.73;99809.41;5052758;28;20033;-74
2021/04/30 03:14:07;;;;;;;32.47;29.00;;;;;;;16.41;59.94;99809.47;5052430;28;20119;-74
2021/04/30 03:16:33;;;;;;;18.08;16.25;;;;;;;16.38;59.90;99803.84;5052661;28;20025;-74
2021/04/30 03:18:58;;;;;;;10.05;8.65;;;;;;;16.30;59.41;99802.28;5052554;28;20036;-74
2021/04/30 03:21:24;;;;;;;9.35;6.25;;;;;;;16.31;59.67;99801.09;5053133;28;20036;-74
2021/04/30 03:23:50;;;;;;;8.65;7.60;;;;;;;16.28;59.58;99793.50;5052279;28;20466;-73
2021/04/30 03:26:18;;;;;;;5.88;4.03;;;;;;;16.38;58.56;99795.44;5052584;28;20117;-74
2021/04/30 03:28:44;;;;;;;4.25;3.03;;;;;;;16.35;58.70;99793.44;5052740;28;20025;-74
2021/04/30 03:31:13;;;;;;;4.60;3.55;;;;;;;16.39;58.42;99786.59;5052415;28;20135;-74
2021/04/30 03:33:39;;;;;;;3.10;2.10;;;;;;;16.39;58.31;99802.66;5053425;28;20033;-74
2021/04/30 03:36:06;;;;;;;4.95;2.85;;;;;;;16.35;58.48;99793.44;5036659;28;20032;-74
2021/04/30 03:38:35;;;;;;;2.80;2.15;;;;;;;16.32;58.21;99788.66;5052286;28;20033;-74
2021/04/30 03:41:00;;;;;;;2.90;2.38;;;;;;;16.28;58.21;99787.88;5053848;28;20460;-74
2021/04/30 03:43:32;;;;;;;5.65;2.63;;;;;;;16.33;57.66;99777.03;5052584;28;20116;-74
2021/04/30 03:45:58;;;;;;;2.03;1.92;;;;;;;16.32;57.81;99783.06;5052814;28;20028;-74
2021/04/30 03:48:25;;;;;;;6.15;3.83;;;;;;;16.40;56.94;99781.78;5052103;28;20029;-73
2021/04/30 03:50:51;;;;;;;3.40;2.25;;;;;;;16.41;57.06;99786.22;5052723;28;20032;-74
2021/04/30 03:53:17;;;;;;;4.05;2.75;;;;;;;16.39;57.37;99783.00;5052154;28;20456;-74
2021/04/30 03:55:42;;;;;;;4.65;3.03;;;;;;;16.38;57.56;99785.00;5052148;28;20033;-73
2021/04/30 03:58:08;;;;;;;3.47;2.30;;;;;;;16.42;57.05;99787.78;5052324;28;20021;-74
2021/04/30 04:00:34;;;;;;;2.35;1.83;;;;;;;16.32;57.17;99786.66;5054424;28;20436;-73
2021/04/30 04:03:02;;;;;;;3.42;2.20;;;;;;;16.27;57.77;99792.69;5056304;28;20527;-74
2021/04/30 04:05:28;;;;;;;2.38;1.73;;;;;;;16.26;57.83;99784.69;5056150;28;20086;-73
2021/04/30 04:07:53;;;;;;;2.33;1.67;;;;;;;16.21;57.20;99777.50;5056119;28;20029;-73
2021/04/30 04:10:19;;;;;;;6.45;2.15;;;;;;;16.24;57.31;99787.91;5056134;28;20029;-74
2021/04/30 04:12:44;;;;;;;7.57;2.13;;;;;;;16.26;56.34;99784.69;5056049;28;20032;-74
2021/04/30 04:15:10;;;;;;;3.80;1.80;;;;;;;16.33;55.44;99779.81;5056052;28;20061;-74
2021/04/30 04:17:39;;;;;;;5.55;1.70;;;;;;;16.41;55.65;99777.78;5056484;28;20037;-74
2021/04/30 04:20:05;;;;;;;3.50;2.40;;;;;;;16.42;55.52;99776.56;5056319;28;20051;-74
2021/04/30 04:22:31;;;;;;;4.25;1.60;;;;;;;16.47;54.97;99773.31;5056154;28;20065;-74
2021/04/30 04:24:57;;;;;;;2.53;1.60;;;;;;;16.56;55.02;99772.84;5055661;28;20542;-74
2021/04/30 04:27:23;;;;;;;4.78;1.67;;;;;;;16.62;54.36;99780.44;5056073;28;20056;-74
2021/04/30 04:29:48;;;;;;;4.43;1.50;;;;;;;16.67;54.63;99774.38;5055513;28;20051;-75
2021/04/30 04:32:14;;;;;;;2.25;2.03;;;;;;;16.78;54.26;99777.09;5056021;28;20029;-74
2021/04/30 04:34:44;;;;;;;3.80;1.67;;;;;;;16.87;53.84;99773.81;5056314;28;20434;-74
2021/04/30 04:37:11;;;;;;;3.92;1.83;;;;;;;17.04;53.80;99761.59;5039981;28;20029;-75
2021/04/30 04:39:37;;;;;;;4.03;1.65;;;;;;;17.27;52.57;99767.38;5056192;28;20032;-76
2021/04/30 04:42:06;;;;;;;7.68;1.52;;;;;;;17.60;51.25;99781.88;5055819;28;20475;-76
2021/04/30 04:44:33;;;;;;;2.13;1.92;;;;;;;18.16;50.66;99773.09;5039472;28;20029;-76
2021/04/30 04:46:59;;;;;;;3.03;1.45;;;;;;;18.66;47.12;99778.78;5055871;28;20021;-75
2021/04/30 04:49:24;;;;;;;3.22;1.40;;;;;;;19.18;47.01;99780.34;5055293;28;20482;-76
2021/04/30 04:51:53;;;;;;;4.22;1.83;;;;;;;19.76;46.78;99780.81;5055386;28;20033;-76
2021/04/30 04:54:20;;;;;;;4.55;1.60;;;;;;;20.22;44.59;99791.09;5055538;28;20380;-76
2021/04/30 04:56:48;;;;;;;6.18;1.90;;;;;;;20.57;44.13;99783.06;5055162;28;20021;-76
2021/04/30 04:59:17;;;;;;;5.28;1.83;;;;;;;20.80;42.02;99784.91;5055104;28;20029;-76
2021/04/30 05:01:42;;;;;;;6.30;1.73;;;;;;;21.30;39.30;99775.13;5055314;28;20044;-76
2021/04/30 05:04:08;;;;;;;4.97;2.38;;;;;;;21.69;40.01;99782.53;5054996;28;20471;-75
2021/04/30 05:06:33;;;;;;;3.78;2.15;;;;;;;22.03;38.84;99784.75;5054996;28;20029;-75
2021/04/30 05:09:01;;;;;;;1.98;1.65;;;;;;;22.31;39.38;99788.75;5055197;28;20035;-76
2021/04/30 05:11:27;;;;;;;5.68;1.80;;;;;;;22.38;37.98;99771.56;5054155;28;20028;-78
2021/04/30 05:13:52;;;;;;;5.50;2.20;;;;;;;23.18;37.98;99798.91;5055157;28;20025;-80
2021/04/30 05:16:18;;;;;;;2.00;1.58;;;;;;;23.29;35.95;99793.66;5055682;28;20024;-78
2021/04/30 05:18:43;;;;;;;5.53;1.98;;;;;;;23.72;35.47;99798.59;5054863;28;20051;-74
2021/04/30 05:21:11;;;;;;;3.15;1.40;;;;;;;24.18;33.75;99795.22;5054784;28;20029;-74
2021/04/30 05:23:38;;;;;;;7.97;1.95;;;;;;;24.27;37.90;99800.97;5055872;28;20068;-75
2021/04/30 05:26:04;;;;;;;5.28;1.45;;;;;;;24.56;32.22;99804.31;5055199;28;20048;-75
2021/04/30 05:28:31;;;;;;;5.88;1.80;;;;;;;25.00;34.56;99809.81;5054910;28;20037;-75
2021/04/30 05:30:56;;;;;;;5.93;1.98;;;;;;;25.38;33.09;99802.91;5054565;28;20059;-76
2021/04/30 05:33:22;;;;;;;3.72;1.88;;;;;;;24.60;31.80;99806.97;5054449;28;20029;-75
2021/04/30 05:35:48;;;;;;;4.72;1.70;;;;;;;24.73;31.09;99806.88;5054443;28;20064;-75
2021/04/30 05:38:13;;;;;;;1.33;1.23;;;;;;;25.11;30.51;99814.28;5054263;28;20021;-75
2021/04/30 05:40:39;;;;;;;5.47;2.22;;;;;;;25.67;33.95;99804.47;5054765;28;20029;-76
2021/04/30 05:43:04;;;;;;;6.55;2.83;;;;;;;25.56;29.83;99807.81;5054152;28;20387;-75
2021/04/30 05:45:30;;;;;;;7.50;2.75;;;;;;;26.30;29.00;99811.34;5054278;28;20036;-75
2021/04/30 05:47:55;;;;;;;5.00;2.38;;;;;;;26.85;29.69;99822.59;5054563;28;20071;-76
2021/04/30 05:50:21;;;;;;;3.55;1.92;;;;;;;27.50;28.61;99829.47;5054497;28;20078;-76
2021/04/30 05:52:46;;;;;;;6.18;2.45;;;;;;;27.55;28.45;99823.09;5054135;28;20481;-75
2021/04/30 05:55:12;;;;;;;2.75;2.20;;;;;;;27.80;26.46;99827.47;5054849;28;20028;-75
2021/04/30 05:57:38;;;;;;;3.83;2.53;;;;;;;27.63;28.01;99835.69;5054247;28;20086;-75
2021/04/30 06:00:13;;;;;;;4.18;2.28;;;;;;;27.85;26.60;99837.44;5054263;28;20467;-75
2021/04/30 06:02:39;;;;;;;3.35;2.17;;;;;;;27.22;26.82;99843.16;5054286;28;20029;-75
2021/04/30 06:05:06;;;;;;;2.10;1.70;;;;;;;27.72;27.33;99845.53;5054130;28;20435;-75
2021/04/30 06:07:31;;;;;;;3.05;2.33;;;;;;;28.26;26.58;99846.25;5037354;28;20061;-75
2021/04/30 06:09:57;;;;;;;4.47;2.00;;;;;;;28.76;28.64;99849.19;5053777;28;20126;-75
2021/04/30 06:12:22;;;;;;;5.13;1.85;;;;;;;28.17;25.55;99845.06;5054242;28;20120;-74
2021/04/30 06:14:49;;;;;;;3.47;1.67;;;;;;;28.04;26.15;99850.28;5053952;28;20383;-75
2021/04/30 06:17:14;;;;;;;4.60;2.03;;;;;;;27.46;26.79;99843.16;5053510;28;20047;-75
2021/04/30 06:19:40;;;;;;;2.97;1.90;;;;;;;27.72;26.87;99854.09;5054028;28;20044;-75
2021/04/30 06:22:05;;;;;;;4.78;2.05;;;;;;;27.68;26.73;99855.03;5053444;28;20033;-75
2021/04/30 06:24:31;;;;;;;3.13;2.17;;;;;;;27.30;28.01;99847.22;5052473;28;20510;-74
2021/04/30 06:26:57;;;;;;;5.15;2.47;;;;;;;28.18;26.70;99852.38;5053241;28;20033;-75
2021/04/30 06:29:22;;;;;;;6.20;2.78;;;;;;;27.68;27.86;99857.88;5053122;28;20033;-75
2021/04/30 06:31:48;;;;;;;5.25;2.38;;;;;;;27.98;27.29;99857.19;5053571;28;20033;-75
2021/04/30 06:34:13;;;;;;;5.43;3.08;;;;;;;27.30;28.17;99852.94;5053003;28;20391;-75
2021/04/30 06:36:39;;;;;;;7.63;3.05;;;;;;;27.18;28.21;99865.41;5053481;28;20033;-75
2021/04/30 06:39:05;;;;;;;5.25;2.85;;;;;;;27.34;28.76;99864.19;5054232;28;20430;-75
2021/04/30 06:41:31;;;;;;;5.40;2.40;;;;;;;27.40;29.53;99873.66;5052881;28;20037;-75
2021/04/30 06:43:57;;;;;;;3.85;2.58;;;;;;;27.36;29.71;99867.34;5052787;28;20076;-75
2021/04/30 06:46:23;;;;;;;4.18;2.95;;;;;;;27.09;29.91;99851.97;5052572;28;20069;-76
2021/04/30 06:48:50;;;;;;;5.28;2.70;;;;;;;26.44;32.42;99873.47;5052796;28;20474;-75
2021/04/30 06:51:16;;;;;;;10.43;3.58;;;;;;;25.37;36.39;99875.38;5036275;28;20033;-75
2021/04/30 06:53:43;;;;;;;8.20;3.13;;;;;;;26.69;34.06;99872.28;5052303;28;20090;-76
2021/04/30 06:56:09;;;;;;;4.40;2.75;;;;;;;27.46;32.20;99883.16;5052824;28;20029;-75
2021/04/30 06:58:34;;;;;;;5.78;2.72;;;;;;;28.17;30.24;99873.66;5052288;28;20062;-75
2021/04/30 07:01:00;;;;;;;7.30;3.30;;;;;;;28.53;29.40;99874.59;5052797;28;20021;-75
2021/04/30 07:03:25;;;;;;;5.88;3.38;;;;;;;29.40;28.97;99868.38;5052862;28;20474;-75
2021/04/30 07:05:51;;;;;;;7.40;3.38;;;;;;;29.62;28.00;99873.66;5053245;28;20367;-75
2021/04/30 07:08:17;;;;;;;6.10;3.15;;;;;;;29.03;28.48;99879.56;5052972;28;20475;-75
2021/04/30 07:10:42;;;;;;;3.67;2.38;;;;;;;28.39;27.55;99878.25;5052679;28;20028;-75
2021/04/30 07:13:12;;;;;;;6.80;3.20;;;;;;;28.31;28.22;99877.81;5052656;28;20111;-74
2021/04/30 07:15:38;;;;;;;4.03;3.20;;;;;;;28.89;27.91;99875.44;5052034;28;20463;-74
2021/04/30 07:18:04;;;;;;;5.03;2.65;;;;;;;29.15;27.20;99882.09;5052690;28;20051;-73
2021/04/30 07:20:31;;;;;;;6.38;2.78;;;;;;;29.46;26.64;99878.63;5052580;28;20519;-75
2021/04/30 07:23:00;;;;;;;10.15;3.38;;;;;;;29.98;26.28;99886.56;5052567;28;20068;-74
2021/04/30 07:25:26;;;;;;;4.88;2.42;;;;;;;30.32;25.84;99881.22;5052382;28;20092;-75
2021/04/30 07:27:51;;;;;;;3.35;2.90;;;;;;;29.42;25.15;99883.00;5052306;28;20024;-75
2021/04/30 07:30:18;;;;;;;4.55;2.78;;;;;;;30.15;24.45;99890.44;5052344;28;20080;-74
2021/04/30 07:32:44;;;;;;;8.23;3.05;;;;;;;30.25;25.49;99893.91;5052483;28;20033;-74
2021/04/30 07:35:10;;;;;;;9.15;2.83;;;;;;;30.36;25.23;99896.09;5051823;28;20480;-74
2021/04/30 07:37:39;;;;;;;4.13;2.45;;;;;;;30.11;25.39;99886.19;5051881;28;20559;-75
2021/04/30 07:40:07;;;;;;;3.60;1.80;;;;;;;29.69;22.49;99891.19;5052577;28;20378;-75
2021/04/30 07:42:32;;;;;;;5.20;2.10;;;;;;;30.38;24.42;99882.84;5052211;28;20464;-74
2021/04/30 07:44:58;;;;;;;5.07;2.40;;;;;;;30.33;25.08;99895.06;5052209;28;20036;-75
2021/04/30 07:47:23;;;;;;;4.40;2.80;;;;;;;30.52;24.90;99881.13;5052020;28;20123;-74
2021/04/30 07:49:49;;;;;;;7.25;2.45;;;;;;;30.92;23.57;99885.13;5053696;28;20033;-75
2021/04/30 07:52:14;;;;;;;6.97;2.25;;;;;;;30.13;24.24;99872.94;5052166;28;20033;-75
2021/04/30 07:54:40;;;;;;;4.03;2.55;;;;;;;30.72;23.46;99872.44;5051992;28;20025;-75
2021/04/30 07:57:06;;;;;;;5.00;2.50;;;;;;;30.02;23.79;99884.28;5051956;28;20029;-73
2021/04/30 07:59:32;;;;;;;5.18;2.25;;;;;;;29.67;24.97;99890.09;5051883;28;20059;-75
2021/04/30 08:02:01;;;;;;;2.83;1.95;;;;;;;29.16;24.01;99868.56;5052206;28;20025;-75
2021/04/30 08:04:26;;;;;;;4.05;2.17;;;;;;;29.31;24.43;99877.91;5051944;28;20094;-74
2021/04/30 08:06:52;;;;;;;7.82;2.05;;;;;;;29.20;23.49;99878.53;5052185;28;20033;-75
2021/04/30 08:09:18;;;;;;;4.35;2.10;;;;;;;29.77;23.35;99882.94;5053537;28;20490;-73
2021/04/30 08:11:43;;;;;;;5.82;1.85;;;;;;;29.87;22.69;99880.72;5051770;28;20123;-75
2021/04/30 08:14:09;;;;;;;4.10;1.65;;;;;;;30.02;22.90;99887.91;5051857;28;20116;-75
2021/04/30 08:16:36;;;;;;;5.25;2.38;;;;;;;30.76;21.35;99877.97;5052133;28;20067;-74
2021/04/30 08:19:03;;;;;;;6.47;2.42;;;;;;;30.50;21.19;99878.78;5052876;28;20383;-74
2021/04/30 08:21:29;;;;;;;5.22;2.40;;;;;;;30.27;22.21;99877.00;5053007;28;20040;-74
2021/04/30 08:23:55;;;;;;;3.03;1.85;;;;;;;31.10;22.04;99881.84;5051338;28;20049;-74
2021/04/30 08:26:21;;;;;;;4.13;2.85;;;;;;;30.52;21.31;99881.94;5051927;28;20041;-73
2021/04/30 08:28:47;;;;;;;5.93;2.40;;;;;;;29.48;22.95;99886.72;5052124;28;20364;-73
2021/04/30 08:31:13;;;;;;;4.50;2.45;;;;;;;28.96;23.85;99886.50;5051868;28;20037;-73
2021/04/30 08:33:39;;;;;;;5.82;2.78;;;;;;;28.48;24.95;99909.63;5051602;28;20025;-73
2021/04/30 08:36:04;;;;;;;7.93;3.20;;;;;;;28.61;24.44;99895.81;5051562;28;20029;-74
2021/04/30 08:38:30;;;;;;;4.47;2.50;;;;;;;28.04;25.77;99896.06;5051570;28;20116;-74
2021/04/30 08:40:59;;;;;;;7.13;3.58;;;;;;;27.78;26.21;99887.22;5051493;28;20124;-74
2021/04/30 08:43:25;;;;;;;5.53;3.00;;;;;;;27.52;26.95;99881.19;5051481;28;20025;-74
2021/04/30 08:45:54;;;;;;;9.18;2.85;;;;;;;27.08;27.36;99887.50;5052849;28;20033;-74
2021/04/30 08:48:20;;;;;;;5.35;3.55;;;;;;;27.61;26.94;99878.28;5055877;28;20158;-74
2021/04/30 08:50:47;;;;;;;8.35;3.55;;;;;;;27.36;27.53;99875.91;5055458;28;20037;-74
2021/04/30 08:53:16;;;;;;;9.18;3.42;;;;;;;28.32;26.47;99878.63;5056975;28;20021;-72
2021/04/30 08:55:41;;;;;;;12.20;4.97;;;;;;;29.35;25.40;99881.34;5055459;28;20044;-74
2021/04/30 08:58:10;;;;;;;7.55;3.28;;;;;;;29.58;24.84;99873.06;5055426;28;20479;-73
2021/04/30 09:00:36;;;;;;;6.97;3.83;;;;;;;29.56;25.17;99867.81;5055392;28;20033;-73
2021/04/30 09:03:02;;;;;;;4.57;2.90;;;;;;;29.75;24.26;99880.56;5055314;28;20033;-73
2021/04/30 09:05:29;;;;;;;7.03;2.83;;;;;;;29.16;25.03;99871.44;5038561;28;20454;-73
2021/04/30 09:07:57;;;;;;;4.45;2.63;;;;;;;29.03;25.62;99874.66;5054701;28;20059;-74
2021/04/30 09:10:24;;;;;;;5.57;2.80;;;;;;;28.92;25.58;99869.50;5054878;28;20079;-73
2021/04/30 09:13:06;;;;;;;7.05;2.67;;;;;;;28.97;25.42;99860.22;5055883;28;20021;-73
2021/04/30 09:15:33;;;;;;;3.08;2.08;;;;;;;28.50;25.23;99883.38;5055419;28;20504;-72
2021/04/30 09:18:16;;;;;;;6.22;3.33;;;;;;;29.65;24.85;99886.97;5054947;28;20024;-72
2021/04/30 09:20:42;;;;;;;6.07;3.00;;;;;;;30.63;23.52;99886.19;5054503;28;20095;-72
2021/04/30 09:23:34;;;;;;;6.30;2.67;;;;;;;31.19;23.21;99881.66;5054374;28;20109;-73
2021/04/30 09:26:04;;;;;;;4.28;2.35;;;;;;;30.26;23.35;99875.44;5054939;28;20036;-73
2021/04/30 09:28:30;;;;;;;9.32;2.35;;;;;;;29.93;23.78;99870.06;5055462;28;20104;-72
2021/04/30 09:30:56;;;;;;;2.90;1.90;;;;;;;29.72;23.76;99878.72;5054357;28;20421;-71
2021/04/30 09:33:23;;;;;;;7.45;3.72;;;;;;;29.45;24.80;99864.78;5054302;28;20029;-72
2021/04/30 09:35:50;;;;;;;4.47;1.92;;;;;;;29.71;24.20;99865.66;5055609;28;20468;-74
2021/04/30 09:38:20;;;;;;;5.78;2.30;;;;;;;29.67;24.50;99876.59;5054775;28;20025;-74
2021/04/30 09:41:07;;;;;;;8.07;2.72;;;;;;;29.68;24.52;99868.78;5054100;28;20542;-73
2021/04/30 09:43:50;;;;;;;4.25;2.08;;;;;;;30.27;23.83;99851.19;5054234;28;20044;-74
2021/04/30 09:46:24;;;;;;;7.97;2.22;;;;;;;29.88;24.52;99851.53;5055707;28;20486;-73
2021/04/30 09:49:08;;;;;;;4.72;2.38;;;;;;;29.95;24.80;99847.44;5054080;28;20033;-73
2021/04/30 09:51:54;;;;;;;4.38;2.63;;;;;;;30.12;26.33;99848.41;5055126;28;20067;-72
2021/04/30 09:54:20;;;;;;;3.55;2.72;;;;;;;29.84;24.92;99845.22;5054571;28;20028;-73
2021/04/30 09:57:01;;;;;;;4.10;2.33;;;;;;;30.44;23.69;99834.88;5053966;28;20426;-72
2021/04/30 09:59:27;;;;;;;9.88;2.45;;;;;;;30.74;24.29;99832.56;5053145;28;20032;-73
2021/04/30 10:02:10;;;;;;;5.38;2.45;;;;;;;31.07;24.17;99827.53;5053764;28;20468;-73
2021/04/30 10:04:37;;;;;;;5.00;2.30;;;;;;;30.71;23.74;99847.13;5053820;28;20036;-72
2021/04/30 10:07:04;;;;;;;12.75;2.78;;;;;;;30.89;23.21;99831.59;5053922;28;20052;-73
2021/04/30 10:09:30;;;;;;;5.80;2.22;;;;;;;30.54;23.37;99844.09;5054015;28;20098;-72
2021/04/30 10:11:56;;;;;;;10.80;2.45;;;;;;;29.84;24.99;99838.72;5054087;28;20017;-72
2021/04/30 10:14:24;;;;;;;4.10;2.28;;;;;;;29.54;25.02;99838.88;5054125;28;20043;-71
2021/04/30 10:16:53;;;;;;;3.40;2.35;;;;;;;29.42;25.27;99840.81;5053599;28;20483;-73
2021/04/30 10:19:19;;;;;;;12.27;2.53;;;;;;;29.84;25.03;99850.19;5053786;28;20029;-73
2021/04/30 10:21:45;;;;;;;3.15;2.03;;;;;;;30.48;24.49;99849.03;5053331;28;20475;-73
2021/04/30 10:24:15;;;;;;;4.97;2.20;;;;;;;30.42;23.86;99865.41;5053340;28;20411;-74
2021/04/30 10:26:43;;;;;;;3.65;1.80;;;;;;;30.67;22.66;99861.69;5053191;28;20037;-73
2021/04/30 10:29:17;;;;;;;4.60;2.45;;;;;;;30.93;23.14;99863.72;5054996;28;20112;-73
2021/04/30 10:31:46;;;;;;;6.38;2.22;;;;;;;31.01;23.11;99853.34;5053274;28;20040;-73
2021/04/30 10:34:20;;;;;;;6.85;2.30;;;;;;;30.89;21.88;99852.47;5053633;28;20037;-73
2021/04/30 10:36:53;;;;;;;3.65;2.00;;;;;;;31.04;21.62;99852.31;5053181;28;20029;-73
2021/04/30 10:39:37;;;;;;;8.23;2.78;;;;;;;31.62;21.35;99849.22;5053418;28;20025;-73
2021/04/30 10:42:13;;;;;;;4.20;2.55;;;;;;;31.52;22.00;99858.06;5053349;28;20464;-73
2021/04/30 10:44:44;;;;;;;3.05;1.95;;;;;;;31.26;21.79;99843.84;5054878;28;20040;-73
2021/04/30 10:47:12;;;;;;;8.43;2.28;;;;;;;30.92;22.56;99865.03;5053069;28;20094;-73
2021/04/30 10:49:39;;;;;;;8.88;3.33;;;;;;;31.22;22.36;99854.78;5055106;28;20456;-72
2021/04/30 10:52:05;;;;;;;4.90;2.30;;;;;;;32.11;21.61;99856.44;5052943;28;20040;-73
2021/04/30 10:54:31;;;;;;;4.75;2.20;;;;;;;32.14;21.41;99848.88;5053296;28;20044;-73
2021/04/30 10:56:57;;;;;;;5.60;2.47;;;;;;;32.22;21.22;99839.19;5052787;28;20025;-73
2021/04/30 10:59:42;;;;;;;4.35;1.80;;;;;;;32.17;21.18;99848.59;5052756;28;20029;-71
2021/04/30 11:02:20;;;;;;;6.88;2.05;;;;;;;32.50;20.79;99842.13;5052728;28;20106;-75
2021/04/30 11:05:11;;;;;;;4.68;2.17;;;;;;;31.88;20.61;99837.59;5052707;28;20032;-71
2021/04/30 11:07:38;;;;;;;3.67;2.15;;;;;;;32.12;20.39;99835.03;5052653;28;20029;-72
2021/04/30 11:10:23;;;;;;;3.75;1.70;;;;;;;31.41;22.79;99809.16;5053130;28;20037;-72
2021/04/30 11:12:58;;;;;;;5.60;2.10;;;;;;;31.72;22.56;99836.97;5052548;28;20025;-72
2021/04/30 11:15:25;;;;;;;4.88;1.77;;;;;;;32.22;22.17;99826.91;5053055;28;20349;-72
2021/04/30 11:17:55;;;;;;;5.88;2.15;;;;;;;32.67;21.80;99827.72;5052209;28;20029;-73
2021/04/30 11:20:24;;;;;;;3.55;2.05;;;;;;;32.48;21.15;99823.81;5052927;28;20094;-72
2021/04/30 11:23:20;;;;;;;6.03;1.95;;;;;;;31.96;22.16;99830.81;5052097;28;20499;-73
2021/04/30 11:26:08;;;;;;;5.10;2.17;;;;;;;31.81;21.15;99821.63;5052401;28;20033;-73
2021/04/30 11:28:33;;;;;;;4.53;2.15;;;;;;;31.26;23.11;99820.06;5053503;28;20111;-73
2021/04/30 11:31:00;;;;;;;6.47;2.25;;;;;;;31.12;23.49;99813.19;5052855;28;20123;-73
2021/04/30 11:33:26;;;;;;;4.93;2.20;;;;;;;31.22;23.17;99811.69;5052508;28;20357;-73
2021/04/30 11:35:53;;;;;;;8.10;2.17;;;;;;;31.20;23.25;99825.75;5052182;28;20040;-73